Time;durP1;ratioP1;P1;durP2;ratioP2;P2;SDS_P1;SDS_P2;PMS_P1;PMS_P2;Temp;Humidity;BMP_temperature;BMP_pressure;BME280_temperature;BME280_humidity;BME280_pressure;Samples;Min_cycle;Max_cycle;Signal;HPM_P1;HPM_P2
2023/09/06 00:00:32;;;;;;;7.82;5.15;;;;;;;;;;6277269;28;20056;-69
2023/09/06 00:03:36;;;;;;;7.20;6.20;;;;;;;;;;6283382;28;20053;-69
2023/09/06 00:06:40;;;;;;;8.52;4.85;;;;;;;;;;6286201;28;20175;-68
2023/09/06 00:09:42;;;;;;;8.13;6.15;;;;;;;;;;6286749;28;20130;-69
2023/09/06 00:12:46;;;;;;;6.88;5.97;;;;;;;;;;6286577;28;20049;-69
2023/09/06 00:15:49;;;;;;;6.40;4.95;;;;;;;;;;6285660;28;20048;-68
2023/09/06 00:18:52;;;;;;;10.13;6.00;;;;;;;;;;6286892;28;20068;-69
2023/09/06 00:21:54;;;;;;;9.05;5.82;;;;;;;;;;6285015;28;20044;-69
2023/09/06 00:24:57;;;;;;;6.30;4.90;;;;;;;;;;6282368;28;20048;-68
2023/09/06 00:28:01;;;;;;;9.48;5.25;;;;;;;;;;6286099;28;20048;-68
2023/09/06 00:31:03;;;;;;;8.48;6.10;;;;;;;;;;6285810;28;20421;-69
2023/09/06 00:34:06;;;;;;;7.32;6.30;;;;;;;;;;6278846;28;20049;-68
2023/09/06 00:37:09;;;;;;;8.55;6.05;;;;;;;;;;6285334;28;20059;-69
2023/09/06 00:40:21;;;;;;;9.50;8.35;;;;;;;;;;6287638;28;20692;-68
2023/09/06 00:43:23;;;;;;;8.07;7.32;;;;;;;;;;6286413;28;20663;-69
2023/09/06 00:46:26;;;;;;;8.15;7.30;;;;;;;;;;6284866;28;20728;-68
2023/09/06 00:49:29;;;;;;;7.88;5.30;;;;;;;;;;6286081;28;20616;-69
2023/09/06 00:52:31;;;;;;;11.45;5.80;;;;;;;;;;6284826;28;20849;-69
2023/09/06 00:55:34;;;;;;;7.18;6.03;;;;;;;;;;6285406;28;20840;-69
2023/09/06 00:58:38;;;;;;;6.45;5.35;;;;;;;;;;6278947;28;20055;-68
2023/09/06 01:01:41;;;;;;;9.82;6.28;;;;;;;;;;6269144;28;20060;-68
2023/09/06 01:04:43;;;;;;;8.02;6.80;;;;;;;;;;6286302;28;20044;-68
2023/09/06 01:07:55;;;;;;;7.65;5.72;;;;;;;;;;6286837;28;20055;-68
2023/09/06 01:11:18;;;;;;;10.07;5.70;;;;;;;;;;6249855;28;20071;-68
2023/09/06 01:14:21;;;;;;;8.00;5.68;;;;;;;;;;6286821;28;20052;-68
2023/09/06 01:17:27;;;;;;;6.53;4.93;;;;;;;;;;6266903;28;20451;-69
2023/09/06 01:20:38;;;;;;;8.00;5.82;;;;;;;;;;6263021;28;20051;-69
2023/09/06 01:23:41;;;;;;;9.02;6.90;;;;;;;;;;6284742;28;20045;-69
2023/09/06 01:26:44;;;;;;;8.18;6.20;;;;;;;;;;6286280;28;20044;-68
2023/09/06 01:29:46;;;;;;;9.57;6.13;;;;;;;;;;6268667;28;20044;-68
2023/09/06 01:32:48;;;;;;;11.45;6.38;;;;;;;;;;6284738;28;20056;-68
2023/09/06 01:35:51;;;;;;;10.40;5.93;;;;;;;;;;6284816;28;20041;-68
2023/09/06 01:38:53;;;;;;;7.40;6.47;;;;;;;;;;6284923;28;20595;-69
2023/09/06 01:41:55;;;;;;;7.45;5.40;;;;;;;;;;6285725;28;20634;-68
2023/09/06 01:44:58;;;;;;;11.45;6.65;;;;;;;;;;6284266;28;20198;-68
2023/09/06 01:48:02;;;;;;;9.93;5.43;;;;;;;;;;6286068;28;20443;-68
2023/09/06 01:51:08;;;;;;;8.20;6.45;;;;;;;;;;6285706;28;20101;-68
2023/09/06 01:54:11;;;;;;;8.63;6.80;;;;;;;;;;6276725;28;20044;-68
2023/09/06 01:57:13;;;;;;;9.82;7.60;;;;;;;;;;6282389;28;20753;-67
2023/09/06 02:00:27;;;;;;;10.00;7.85;;;;;;;;;;6269615;28;20048;-68
2023/09/06 02:03:31;;;;;;;9.38;6.97;;;;;;;;;;6289693;28;20040;-68
2023/09/06 02:06:34;;;;;;;10.05;8.02;;;;;;;;;;6289502;28;20037;-68
2023/09/06 02:09:36;;;;;;;11.18;8.13;;;;;;;;;;6289262;28;20076;-68
2023/09/06 02:12:39;;;;;;;10.27;7.70;;;;;;;;;;6289978;28;20473;-67
2023/09/06 02:15:41;;;;;;;10.13;7.90;;;;;;;;;;6289141;28;20523;-67
2023/09/06 02:18:43;;;;;;;11.70;7.25;;;;;;;;;;6288565;28;20044;-67
2023/09/06 02:21:45;;;;;;;12.48;8.38;;;;;;;;;;6288009;28;20036;-68
2023/09/06 02:24:47;;;;;;;11.30;6.47;;;;;;;;;;6289512;28;20416;-67
2023/09/06 02:27:49;;;;;;;9.77;7.07;;;;;;;;;;6289554;28;20521;-67
2023/09/06 02:30:53;;;;;;;10.60;7.40;;;;;;;;;;6284086;28;20123;-68
2023/09/06 02:33:55;;;;;;;10.52;8.00;;;;;;;;;;6287710;28;20447;-68
2023/09/06 02:36:57;;;;;;;11.45;8.52;;;;;;;;;;6287063;28;20133;-68
2023/09/06 02:40:01;;;;;;;10.07;8.15;;;;;;;;;;6289334;28;20458;-68
2023/09/06 02:43:04;;;;;;;14.43;8.48;;;;;;;;;;6285069;28;20067;-68
2023/09/06 02:46:06;;;;;;;9.32;7.45;;;;;;;;;;6286071;28;20141;-68
2023/09/06 02:49:12;;;;;;;9.77;8.80;;;;;;;;;;6288873;28;20652;-68
2023/09/06 02:52:28;;;;;;;10.75;7.38;;;;;;;;;;6282942;28;20045;-68
2023/09/06 02:55:35;;;;;;;10.18;7.30;;;;;;;;;;6280228;28;20041;-67
2023/09/06 02:58:38;;;;;;;10.27;8.38;;;;;;;;;;6282794;28;20049;-68
2023/09/06 03:01:44;;;;;;;12.50;7.95;;;;;;;;;;6286678;28;20043;-68
2023/09/06 03:04:54;;;;;;;9.32;8.00;;;;;;;;;;6283160;28;20041;-69
2023/09/06 03:07:58;;;;;;;9.45;7.78;;;;;;;;;;6269999;28;20049;-69
2023/09/06 03:11:05;;;;;;;10.25;7.20;;;;;;;;;;6287137;28;20116;-69
2023/09/06 03:14:08;;;;;;;9.55;7.60;;;;;;;;;;6287416;28;20052;-67
2023/09/06 03:17:11;;;;;;;10.75;9.65;;;;;;;;;;6286603;28;20550;-67
2023/09/06 03:20:31;;;;;;;11.63;9.18;;;;;;;;;;6286301;28;20547;-67
2023/09/06 03:23:33;;;;;;;9.88;6.38;;;;;;;;;;6286750;28;20512;-67
2023/09/06 03:26:43;;;;;;;10.77;9.65;;;;;;;;;;6286608;28;20666;-68
2023/09/06 03:29:51;;;;;;;10.38;7.82;;;;;;;;;;6286878;28;20546;-66
2023/09/06 03:32:58;;;;;;;10.55;7.82;;;;;;;;;;6287764;28;20218;-66
2023/09/06 03:36:07;;;;;;;9.95;7.57;;;;;;;;;;6285908;28;20531;-66
2023/09/06 03:39:13;;;;;;;12.10;8.63;;;;;;;;;;6296863;28;20163;-67
2023/09/06 03:42:15;;;;;;;13.40;10.55;;;;;;;;;;6286140;28;20613;-67
2023/09/06 03:45:21;;;;;;;11.57;9.40;;;;;;;;;;6287155;28;20101;-67
2023/09/06 03:48:25;;;;;;;10.73;9.10;;;;;;;;;;6287221;28;20131;-67
2023/09/06 03:51:27;;;;;;;10.40;7.32;;;;;;;;;;6269429;28;20446;-68
2023/09/06 03:54:29;;;;;;;9.75;8.30;;;;;;;;;;6285894;28;20182;-68
2023/09/06 03:57:32;;;;;;;13.00;9.02;;;;;;;;;;6287508;28;20052;-67
2023/09/06 04:00:39;;;;;;;11.35;8.73;;;;;;;;;;6285238;28;20127;-67
2023/09/06 04:03:50;;;;;;;11.90;8.25;;;;;;;;;;6301898;28;20060;-67
2023/09/06 04:06:54;;;;;;;10.35;8.63;;;;;;;;;;6286137;28;20048;-68
2023/09/06 04:09:57;;;;;;;9.93;7.90;;;;;;;;;;6285626;28;20043;-68
2023/09/06 04:13:00;;;;;;;10.93;9.60;;;;;;;;;;6286709;28;20135;-67
2023/09/06 04:16:05;;;;;;;13.23;8.25;;;;;;;;;;6285917;28;20056;-68
2023/09/06 04:19:10;;;;;;;12.77;8.27;;;;;;;;;;6285411;28;20466;-66
2023/09/06 04:22:13;;;;;;;8.63;7.43;;;;;;;;;;6286342;28;20565;-66
2023/09/06 04:25:19;;;;;;;11.10;7.47;;;;;;;;;;6281016;28;20048;-66
2023/09/06 04:28:21;;;;;;;10.35;8.85;;;;;;;;;;6286319;28;20139;-67
2023/09/06 04:31:27;;;;;;;10.45;8.13;;;;;;;;;;6285572;28;20040;-67
2023/09/06 04:34:29;;;;;;;11.48;7.50;;;;;;;;;;6285687;28;20047;-67
2023/09/06 04:37:31;;;;;;;10.88;7.82;;;;;;;;;;6284933;28;20044;-66
2023/09/06 04:40:35;;;;;;;13.85;9.05;;;;;;;;;;6283761;28;20128;-68
2023/09/06 04:43:38;;;;;;;14.95;10.00;;;;;;;;;;6282134;28;20055;-66
2023/09/06 04:46:40;;;;;;;11.85;7.50;;;;;;;;;;6274121;28;20605;-66
2023/09/06 04:49:45;;;;;;;9.68;7.45;;;;;;;;;;6270780;28;20056;-67
2023/09/06 04:52:51;;;;;;;9.82;7.15;;;;;;;;;;6276144;28;20774;-68
2023/09/06 04:55:54;;;;;;;11.63;10.43;;;;;;;;;;6276959;28;20040;-69
2023/09/06 04:59:00;;;;;;;10.13;7.78;;;;;;;;;;6264800;28;20045;-69
2023/09/06 05:02:04;;;;;;;10.23;6.47;;;;;;;;;;6285338;28;20045;-68
2023/09/06 05:05:07;;;;;;;10.98;7.97;;;;;;;;;;6285695;28;20044;-67
2023/09/06 05:08:10;;;;;;;10.70;7.05;;;;;;;;;;6266214;28;20425;-67
2023/09/06 05:11:16;;;;;;;13.18;8.57;;;;;;;;;;6282288;28;20742;-67
2023/09/06 05:14:21;;;;;;;13.02;8.13;;;;;;;;;;6281343;28;20134;-68
2023/09/06 05:17:23;;;;;;;15.15;8.32;;;;;;;;;;6284181;28;20067;-67
2023/09/06 05:20:34;;;;;;;12.95;9.10;;;;;;;;;;6287810;28;20036;-68
2023/09/06 05:23:40;;;;;;;11.73;6.90;;;;;;;;;;6280958;28;20037;-68
2023/09/06 05:26:45;;;;;;;9.23;7.07;;;;;;;;;;6264265;28;20644;-68
2023/09/06 05:29:49;;;;;;;9.88;7.80;;;;;;;;;;6267322;28;20048;-69
2023/09/06 05:32:51;;;;;;;9.05;7.78;;;;;;;;;;6287733;28;20039;-69
2023/09/06 05:35:56;;;;;;;9.35;7.60;;;;;;;;;;6283846;28;20040;-68
2023/09/06 05:38:58;;;;;;;11.40;7.55;;;;;;;;;;6282104;28;20057;-68
2023/09/06 05:42:03;;;;;;;11.18;8.15;;;;;;;;;;6281503;28;20052;-69
2023/09/06 05:45:10;;;;;;;11.93;6.72;;;;;;;;;;6287377;28;20039;-69
2023/09/06 05:48:14;;;;;;;11.43;7.20;;;;;;;;;;6286656;28;20101;-69
2023/09/06 05:51:16;;;;;;;10.13;6.18;;;;;;;;;;6280492;28;20660;-69
2023/09/06 05:54:20;;;;;;;9.52;5.72;;;;;;;;;;6274538;28;20094;-69
2023/09/06 05:57:22;;;;;;;7.63;5.82;;;;;;;;;;6274361;28;20740;-70
2023/09/06 06:00:28;;;;;;;7.72;4.90;;;;;;;;;;6281727;28;20087;-69
2023/09/06 06:03:31;;;;;;;9.63;5.50;;;;;;;;;;6278351;28;20072;-69
2023/09/06 06:06:34;;;;;;;8.38;6.05;;;;;;;;;;6281946;28;20037;-68
2023/09/06 06:09:36;;;;;;;7.55;5.97;;;;;;;;;;6279197;28;20044;-68
2023/09/06 06:12:39;;;;;;;11.57;7.30;;;;;;;;;;6287463;28;20045;-68
2023/09/06 06:15:42;;;;;;;10.85;9.02;;;;;;;;;;6286250;28;20079;-68
2023/09/06 06:18:48;;;;;;;8.00;6.57;;;;;;;;;;6285974;28;20063;-68
2023/09/06 06:21:50;;;;;;;9.57;6.13;;;;;;;;;;6285957;28;20049;-68
2023/09/06 06:24:52;;;;;;;6.70;5.28;;;;;;;;;;6287345;28;20045;-68
2023/09/06 06:27:55;;;;;;;8.25;6.90;;;;;;;;;;6284983;28;20828;-68
2023/09/06 06:30:58;;;;;;;10.27;5.50;;;;;;;;;;6283686;28;20665;-68
2023/09/06 06:34:00;;;;;;;8.07;6.10;;;;;;;;;;6280740;28;20056;-69
2023/09/06 06:37:02;;;;;;;7.03;5.60;;;;;;;;;;6278030;28;20535;-69
2023/09/06 06:40:05;;;;;;;11.25;7.82;;;;;;;;;;6308771;28;20692;-69
2023/09/06 06:43:07;;;;;;;9.35;6.93;;;;;;;;;;6276259;28;20182;-69
2023/09/06 06:46:23;;;;;;;9.70;6.97;;;;;;;;;;6280537;28;20052;-69
2023/09/06 06:49:26;;;;;;;9.63;6.35;;;;;;;;;;6275201;28;20053;-69
2023/09/06 06:52:30;;;;;;;6.90;5.45;;;;;;;;;;6285277;28;20080;-69
2023/09/06 06:55:33;;;;;;;7.25;5.18;;;;;;;;;;6280015;28;20084;-68
2023/09/06 06:58:36;;;;;;;9.60;4.88;;;;;;;;;;6286986;28;20060;-70
2023/09/06 07:01:38;;;;;;;7.93;6.15;;;;;;;;;;6278719;28;20121;-69
2023/09/06 07:04:40;;;;;;;8.27;5.78;;;;;;;;;;6289447;28;20052;-70
2023/09/06 07:07:42;;;;;;;9.80;5.55;;;;;;;;;;6288261;28;20122;-70
2023/09/06 07:10:45;;;;;;;9.50;5.45;;;;;;;;;;6289543;28;20032;-71
2023/09/06 07:13:49;;;;;;;7.68;4.97;;;;;;;;;;6288015;28;20514;-68
2023/09/06 07:16:51;;;;;;;6.85;5.68;;;;;;;;;;6284013;28;20040;-69
2023/09/06 07:19:54;;;;;;;7.45;5.43;;;;;;;;;;6278337;28;20044;-69
2023/09/06 07:22:56;;;;;;;8.48;4.97;;;;;;;;;;6284105;28;20176;-69
2023/09/06 07:25:58;;;;;;;7.45;5.85;;;;;;;;;;6282683;28;20190;-68
2023/09/06 07:29:01;;;;;;;7.85;5.43;;;;;;;;;;6282210;28;20052;-69
2023/09/06 07:32:04;;;;;;;8.00;5.60;;;;;;;;;;6284159;28;20835;-70
2023/09/06 07:35:06;;;;;;;6.75;5.05;;;;;;;;;;6286280;28;20047;-71
2023/09/06 07:38:10;;;;;;;7.15;6.35;;;;;;;;;;6285982;28;20681;-71
2023/09/06 07:41:12;;;;;;;9.07;5.70;;;;;;;;;;6284724;28;20036;-69
2023/09/06 07:44:14;;;;;;;7.25;5.00;;;;;;;;;;6280234;28;20048;-69
2023/09/06 07:47:17;;;;;;;10.23;6.38;;;;;;;;;;6276823;28;20187;-68
2023/09/06 07:50:19;;;;;;;8.48;6.32;;;;;;;;;;6282744;28;20130;-69
2023/09/06 07:53:24;;;;;;;8.38;5.57;;;;;;;;;;6276105;28;20058;-69
2023/09/06 07:56:26;;;;;;;;;;;;;;;;;;6280087;28;20052;-69
2023/09/06 07:59:29;;;;;;;8.48;5.68;;;;;;;;;;6281437;28;20426;-70
2023/09/06 08:02:31;;;;;;;7.18;5.13;;;;;;;;;;6280459;28;20045;-69
2023/09/06 08:05:35;;;;;;;7.25;5.03;;;;;;;;;;6275756;28;20126;-69
2023/09/06 08:08:37;;;;;;;9.30;5.82;;;;;;;;;;6273330;28;20044;-68
2023/09/06 08:11:40;;;;;;;10.10;6.88;;;;;;;;;;6282827;28;20048;-68
2023/09/06 08:14:42;;;;;;;6.63;5.00;;;;;;;;;;6279330;28;20133;-68
2023/09/06 08:17:47;;;;;;;9.07;4.78;;;;;;;;;;6279587;28;20182;-68
2023/09/06 08:20:51;;;;;;;7.57;5.03;;;;;;;;;;6282953;28;20114;-69
2023/09/06 08:23:53;;;;;;;6.20;4.60;;;;;;;;;;6283251;28;20447;-69
2023/09/06 08:26:57;;;;;;;8.90;5.00;;;;;;;;;;6283847;28;20044;-69
2023/09/06 08:29:59;;;;;;;8.93;4.72;;;;;;;;;;6274396;28;20049;-69
2023/09/06 08:33:02;;;;;;;7.82;4.57;;;;;;;;;;6281980;28;20040;-71
2023/09/06 08:36:04;;;;;;;8.15;4.93;;;;;;;;;;6281722;28;20040;-71
2023/09/06 08:39:06;;;;;;;7.40;4.88;;;;;;;;;;6284878;28;20037;-71
2023/09/06 08:42:09;;;;;;;8.05;4.72;;;;;;;;;;6279336;28;20070;-71
2023/09/06 08:45:11;;;;;;;8.90;5.07;;;;;;;;;;6281102;28;20439;-70
2023/09/06 08:48:14;;;;;;;9.60;4.88;;;;;;;;;;6273304;28;20037;-69
2023/09/06 08:51:16;;;;;;;8.20;4.65;;;;;;;;;;6280371;28;20136;-71
2023/09/06 08:54:19;;;;;;;7.57;5.10;;;;;;;;;;6283348;28;20451;-71
2023/09/06 08:57:21;;;;;;;10.85;6.18;;;;;;;;;;6286631;28;20067;-71
2023/09/06 09:00:23;;;;;;;8.02;4.93;;;;;;;;;;6286112;28;20081;-71
2023/09/06 09:03:26;;;;;;;8.15;4.05;;;;;;;;;;6276019;28;20102;-69
2023/09/06 09:06:29;;;;;;;10.60;6.45;;;;;;;;;;6278391;28;20051;-71
2023/09/06 09:09:31;;;;;;;7.70;5.60;;;;;;;;;;6289223;28;20055;-71
2023/09/06 09:12:34;;;;;;;6.07;3.90;;;;;;;;;;6289959;28;20052;-71
2023/09/06 09:15:36;;;;;;;7.93;4.00;;;;;;;;;;6290888;28;20044;-72
2023/09/06 09:18:41;;;;;;;7.13;4.40;;;;;;;;;;6287881;28;20044;-72
2023/09/06 09:21:43;;;;;;;9.65;4.65;;;;;;;;;;6282739;28;20151;-71
2023/09/06 09:24:48;;;;;;;7.50;4.28;;;;;;;;;;6286369;28;20718;-71
2023/09/06 09:27:54;;;;;;;8.98;4.93;;;;;;;;;;6281073;28;20059;-71
2023/09/06 09:30:57;;;;;;;6.32;4.20;;;;;;;;;;6280533;28;20040;-71
2023/09/06 09:34:00;;;;;;;6.75;4.28;;;;;;;;;;6283905;28;20067;-71
2023/09/06 09:37:05;;;;;;;7.22;4.35;;;;;;;;;;6283913;28;20578;-71
2023/09/06 09:40:17;;;;;;;7.75;4.43;;;;;;;;;;6285582;28;20048;-71
2023/09/06 09:43:20;;;;;;;8.18;4.22;;;;;;;;;;6281941;28;20110;-69
2023/09/06 09:46:28;;;;;;;6.20;4.22;;;;;;;;;;6285500;28;20055;-71
2023/09/06 09:49:32;;;;;;;5.50;4.25;;;;;;;;;;6285954;28;20041;-71
2023/09/06 09:52:36;;;;;;;7.25;3.38;;;;;;;;;;6281891;28;20526;-70
2023/09/06 09:55:46;;;;;;;7.97;4.15;;;;;;;;;;6285366;28;20556;-71
2023/09/06 09:58:49;;;;;;;7.55;4.30;;;;;;;;;;6274140;28;20057;-71
2023/09/06 10:01:52;;;;;;;11.18;4.07;;;;;;;;;;6287338;28;20386;-71
2023/09/06 10:04:55;;;;;;;7.25;4.93;;;;;;;;;;6285070;28;20044;-70
2023/09/06 10:08:00;;;;;;;9.95;4.00;;;;;;;;;;6283364;28;20085;-70
2023/09/06 10:11:06;;;;;;;;;;;;;;;;;;6288911;28;20055;-70
2023/09/06 10:14:08;;;;;;;8.65;4.60;;;;;;;;;;6281232;28;19946;-70
2023/09/06 10:17:11;;;;;;;7.15;4.38;;;;;;;;;;6286890;28;20055;-70
2023/09/06 10:20:15;;;;;;;7.20;4.07;;;;;;;;;;6288060;28;20051;-70
2023/09/06 10:23:17;;;;;;;5.60;4.03;;;;;;;;;;6288470;28;20048;-70
2023/09/06 10:26:27;;;;;;;6.22;4.40;;;;;;;;;;6285043;28;20035;-70
2023/09/06 10:29:30;;;;;;;7.57;4.28;;;;;;;;;;6289260;28;20446;-70
2023/09/06 10:32:41;;;;;;;8.18;4.45;;;;;;;;;;6289606;28;20578;-70
2023/09/06 10:35:44;;;;;;;7.82;5.15;;;;;;;;;;6285580;28;20036;-72
2023/09/06 10:38:52;;;;;;;5.57;3.80;;;;;;;;;;6283276;28;20087;-70
2023/09/06 10:42:13;;;;;;;9.27;6.47;;;;;;;;;;6286953;28;20138;-69
2023/09/06 10:45:17;;;;;;;8.98;5.22;;;;;;;;;;6285132;28;20552;-70
2023/09/06 10:48:20;;;;;;;6.45;4.53;;;;;;;;;;6289045;28;20045;-70
2023/09/06 10:51:23;;;;;;;;;;;;;;;;;;6289513;28;20131;-70
2023/09/06 10:54:34;;;;;;;6.50;4.78;;;;;;;;;;6264586;28;19928;-69
2023/09/06 10:57:52;;;;;;;8.07;4.70;;;;;;;;;;6283525;28;20053;-70
2023/09/06 11:01:30;;;;;;;9.05;4.18;;;;;;;;;;6287105;28;20068;-71
2023/09/06 11:04:47;;;;;;;8.13;5.47;;;;;;;;;;6242199;28;20049;-70
2023/09/06 11:07:49;;;;;;;10.75;7.10;;;;;;;;;;6287599;28;20823;-70
2023/09/06 11:10:57;;;;;;;8.38;4.50;;;;;;;;;;6283721;28;20045;-69
2023/09/06 11:14:01;;;;;;;7.22;4.85;;;;;;;;;;6285478;28;20280;-70
2023/09/06 11:17:03;;;;;;;10.75;5.28;;;;;;;;;;6284025;28;20431;-70
2023/09/06 11:20:12;;;;;;;7.50;4.47;;;;;;;;;;6280935;28;20041;-70
2023/09/06 11:23:15;;;;;;;9.20;5.15;;;;;;;;;;6287312;28;20041;-68
2023/09/06 11:26:17;;;;;;;8.45;4.88;;;;;;;;;;6279555;28;20049;-69
2023/09/06 11:29:26;;;;;;;7.03;4.75;;;;;;;;;;6287851;28;20121;-68
2023/09/06 11:32:29;;;;;;;9.25;4.90;;;;;;;;;;6284987;28;20044;-69
2023/09/06 11:35:38;;;;;;;11.98;5.10;;;;;;;;;;6283707;28;20052;-68
2023/09/06 11:38:42;;;;;;;7.00;4.80;;;;;;;;;;6285411;28;20056;-68
2023/09/06 11:41:45;;;;;;;7.53;4.55;;;;;;;;;;6270000;28;20048;-68
2023/09/06 11:44:53;;;;;;;8.65;4.70;;;;;;;;;;6279146;28;20052;-68
2023/09/06 11:48:07;;;;;;;6.65;4.75;;;;;;;;;;6265273;28;20044;-68
2023/09/06 11:51:13;;;;;;;8.75;4.45;;;;;;;;;;6282428;28;20048;-68
2023/09/06 11:54:15;;;;;;;8.25;4.75;;;;;;;;;;6282760;28;20127;-68
2023/09/06 11:57:30;;;;;;;9.95;5.65;;;;;;;;;;6278828;28;20123;-69
2023/09/06 12:00:45;;;;;;;7.20;4.88;;;;;;;;;;6286259;28;20068;-69
2023/09/06 12:03:47;;;;;;;6.75;4.57;;;;;;;;;;6284331;28;20048;-69
2023/09/06 12:06:51;;;;;;;7.65;4.38;;;;;;;;;;6286353;28;20137;-69
2023/09/06 12:09:58;;;;;;;6.15;4.78;;;;;;;;;;6290974;28;20187;-68
2023/09/06 12:13:00;;;;;;;7.38;4.95;;;;;;;;;;6285923;28;20135;-68
2023/09/06 12:16:07;;;;;;;6.40;4.30;;;;;;;;;;6281074;28;20203;-68
2023/09/06 12:19:13;;;;;;;10.05;5.03;;;;;;;;;;6281145;28;20478;-69
2023/09/06 12:22:17;;;;;;;9.75;5.35;;;;;;;;;;6281536;28;20033;-69
2023/09/06 12:25:19;;;;;;;7.20;6.38;;;;;;;;;;6284954;28;20518;-69
2023/09/06 12:28:27;;;;;;;8.98;4.45;;;;;;;;;;6279864;28;20047;-69
2023/09/06 12:31:30;;;;;;;7.68;4.55;;;;;;;;;;6282455;28;20079;-69
2023/09/06 12:34:33;;;;;;;8.60;4.57;;;;;;;;;;6278000;28;20040;-69
2023/09/06 12:37:36;;;;;;;7.68;5.00;;;;;;;;;;6278296;28;20113;-69
2023/09/06 12:40:39;;;;;;;9.75;4.25;;;;;;;;;;6280425;28;20137;-69
2023/09/06 12:43:41;;;;;;;6.45;4.45;;;;;;;;;;6276892;28;20037;-69
2023/09/06 12:46:44;;;;;;;7.15;4.47;;;;;;;;;;6279305;28;20037;-68
2023/09/06 12:49:48;;;;;;;7.25;4.43;;;;;;;;;;6285414;28;20048;-70
2023/09/06 12:52:51;;;;;;;6.03;3.95;;;;;;;;;;6288891;28;20407;-70
2023/09/06 12:55:53;;;;;;;7.20;5.15;;;;;;;;;;6289081;28;20045;-70
2023/09/06 12:58:55;;;;;;;8.00;5.05;;;;;;;;;;6280929;28;20047;-68
2023/09/06 13:01:57;;;;;;;6.80;4.38;;;;;;;;;;6282959;28;20047;-69
2023/09/06 13:05:00;;;;;;;9.90;5.13;;;;;;;;;;6282320;28;20068;-69
2023/09/06 13:08:03;;;;;;;8.35;5.00;;;;;;;;;;6283605;28;20060;-68
2023/09/06 13:11:06;;;;;;;7.60;4.38;;;;;;;;;;6288296;28;20078;-69
2023/09/06 13:14:08;;;;;;;9.18;4.80;;;;;;;;;;6283051;28;20044;-69
2023/09/06 13:17:10;;;;;;;7.32;5.00;;;;;;;;;;6279427;28;20912;-70
2023/09/06 13:20:13;;;;;;;8.20;4.07;;;;;;;;;;6285516;28;20047;-67
2023/09/06 13:23:15;;;;;;;8.48;5.07;;;;;;;;;;6288147;28;20051;-69
2023/09/06 13:26:17;;;;;;;8.07;5.55;;;;;;;;;;6277046;28;20626;-68
2023/09/06 13:29:19;;;;;;;7.20;4.85;;;;;;;;;;6282773;28;20051;-69
2023/09/06 13:32:21;;;;;;;7.78;5.50;;;;;;;;;;6287756;28;20043;-67
2023/09/06 13:35:23;;;;;;;6.85;4.95;;;;;;;;;;6284215;28;20044;-68
2023/09/06 13:38:26;;;;;;;7.18;5.30;;;;;;;;;;6281645;28;20049;-68
2023/09/06 13:41:28;;;;;;;7.18;4.95;;;;;;;;;;6276773;28;20087;-68
2023/09/06 13:44:31;;;;;;;10.65;5.40;;;;;;;;;;6272324;28;20151;-68
2023/09/06 13:47:33;;;;;;;10.85;5.15;;;;;;;;;;6283332;28;20047;-69
2023/09/06 13:50:35;;;;;;;7.18;4.85;;;;;;;;;;6281183;28;20053;-69
2023/09/06 13:53:37;;;;;;;10.68;7.97;;;;;;;;;;6277557;28;20061;-68
2023/09/06 13:56:39;;;;;;;17.85;5.93;;;;;;;;;;6281471;28;20040;-67
2023/09/06 13:59:41;;;;;;;10.98;5.22;;;;;;;;;;6286421;28;20143;-67
2023/09/06 14:02:43;;;;;;;8.48;5.38;;;;;;;;;;6290909;28;20047;-66
2023/09/06 14:05:49;;;;;;;9.32;6.32;;;;;;;;;;6290742;28;20051;-68
2023/09/06 14:08:51;;;;;;;11.07;8.20;;;;;;;;;;6286613;28;20049;-68
2023/09/06 14:11:53;;;;;;;14.32;5.55;;;;;;;;;;6288331;28;20045;-66
2023/09/06 14:14:58;;;;;;;7.75;5.38;;;;;;;;;;6288511;28;20048;-68
2023/09/06 14:18:02;;;;;;;13.80;6.20;;;;;;;;;;6285864;28;20058;-67
2023/09/06 14:21:05;;;;;;;8.07;5.40;;;;;;;;;;6283634;28;20052;-67
2023/09/06 14:24:07;;;;;;;9.50;6.13;;;;;;;;;;6288110;28;20076;-67
2023/09/06 14:27:09;;;;;;;10.57;4.97;;;;;;;;;;6286650;28;20044;-67
2023/09/06 14:30:12;;;;;;;9.48;5.03;;;;;;;;;;6285832;28;20042;-68
2023/09/06 14:33:14;;;;;;;10.15;5.30;;;;;;;;;;6293648;28;20060;-67
2023/09/06 14:36:16;;;;;;;9.68;6.43;;;;;;;;;;6290203;28;20129;-68
2023/09/06 14:39:18;;;;;;;10.20;5.47;;;;;;;;;;6289084;28;20119;-68
2023/09/06 14:42:20;;;;;;;10.48;5.78;;;;;;;;;;6289871;28;20044;-67
2023/09/06 14:45:23;;;;;;;10.75;5.60;;;;;;;;;;6291715;28;20604;-67
2023/09/06 14:48:30;;;;;;;8.55;4.88;;;;;;;;;;6288312;28;20041;-67
2023/09/06 14:51:33;;;;;;;7.78;5.80;;;;;;;;;;6286030;28;20202;-67
2023/09/06 14:54:35;;;;;;;7.15;5.03;;;;;;;;;;6281568;28;20044;-67
2023/09/06 14:57:39;;;;;;;10.77;6.05;;;;;;;;;;6278804;28;20056;-68
2023/09/06 15:00:43;;;;;;;12.45;6.15;;;;;;;;;;6264301;28;20037;-68
2023/09/06 15:03:45;;;;;;;9.73;6.53;;;;;;;;;;6264878;28;20037;-68
2023/09/06 15:06:49;;;;;;;11.48;5.45;;;;;;;;;;6263635;28;20201;-68
2023/09/06 15:10:02;;;;;;;8.95;6.18;;;;;;;;;;6249480;28;20049;-68
2023/09/06 15:13:07;;;;;;;9.45;5.85;;;;;;;;;;6266340;28;20041;-68
2023/09/06 15:16:09;;;;;;;8.85;6.22;;;;;;;;;;6264794;28;20049;-69
2023/09/06 15:19:12;;;;;;;9.48;6.38;;;;;;;;;;6258353;28;20045;-68
2023/09/06 15:22:14;;;;;;;8.30;5.63;;;;;;;;;;6266143;28;20115;-68
2023/09/06 15:25:36;;;;;;;8.50;5.65;;;;;;;;;;6261446;28;20045;-68
2023/09/06 15:28:40;;;;;;;10.27;5.70;;;;;;;;;;6260384;28;20087;-68
2023/09/06 15:31:42;;;;;;;10.98;6.03;;;;;;;;;;6264790;28;20059;-68
2023/09/06 15:34:44;;;;;;;9.38;5.68;;;;;;;;;;6264981;28;20068;-68
2023/09/06 15:38:05;;;;;;;7.43;5.15;;;;;;;;;;6277766;28;20044;-67
2023/09/06 15:41:11;;;;;;;7.85;5.20;;;;;;;;;;6257599;28;20075;-69
2023/09/06 15:44:14;;;;;;;8.85;5.53;;;;;;;;;;6255210;28;20037;-68
2023/09/06 15:47:16;;;;;;;8.50;5.75;;;;;;;;;;6258794;28;20052;-68
2023/09/06 15:50:19;;;;;;;8.18;5.47;;;;;;;;;;6258894;28;20080;-67
2023/09/06 15:53:22;;;;;;;7.97;4.90;;;;;;;;;;6261551;28;20037;-67
2023/09/06 15:56:24;;;;;;;10.82;5.50;;;;;;;;;;6285955;28;20497;-67
2023/09/06 15:59:26;;;;;;;8.65;5.25;;;;;;;;;;6263240;28;20116;-69
2023/09/06 16:02:28;;;;;;;9.10;5.15;;;;;;;;;;6260057;28;20064;-69
2023/09/06 16:05:31;;;;;;;8.77;5.70;;;;;;;;;;6261552;28;20040;-68
2023/09/06 16:08:33;;;;;;;10.88;5.18;;;;;;;;;;6261793;28;20045;-68
2023/09/06 16:11:36;;;;;;;10.40;5.75;;;;;;;;;;6258126;28;20048;-68
2023/09/06 16:14:38;;;;;;;9.73;6.40;;;;;;;;;;6263307;28;20610;-68
2023/09/06 16:17:40;;;;;;;6.28;4.80;;;;;;;;;;6257766;28;20424;-68
2023/09/06 16:20:42;;;;;;;7.75;6.68;;;;;;;;;;6263433;28;20918;-67
2023/09/06 16:23:44;;;;;;;7.93;4.95;;;;;;;;;;6263333;28;20036;-68
2023/09/06 16:26:46;;;;;;;13.32;5.80;;;;;;;;;;6253394;28;20044;-69
2023/09/06 16:29:49;;;;;;;7.50;5.70;;;;;;;;;;6257386;28;20047;-68
2023/09/06 16:32:51;;;;;;;7.60;5.15;;;;;;;;;;6258636;28;20498;-70
2023/09/06 16:35:54;;;;;;;9.18;6.28;;;;;;;;;;6248053;28;20084;-69
2023/09/06 16:38:56;;;;;;;7.90;5.32;;;;;;;;;;6256185;28;20080;-70
2023/09/06 16:41:59;;;;;;;8.77;6.07;;;;;;;;;;6261195;28;20167;-69
2023/09/06 16:45:02;;;;;;;11.40;5.20;;;;;;;;;;6255049;28;20049;-69
2023/09/06 16:48:06;;;;;;;8.52;6.45;;;;;;;;;;6257011;28;20060;-69
2023/09/06 16:51:09;;;;;;;8.10;5.28;;;;;;;;;;6260380;28;20044;-68
2023/09/06 16:54:11;;;;;;;8.43;5.97;;;;;;;;;;6247240;28;20037;-68
2023/09/06 16:57:13;;;;;;;13.13;6.00;;;;;;;;;;6260884;28;20041;-68
2023/09/06 17:00:15;;;;;;;9.18;6.03;;;;;;;;;;6258288;28;20053;-69
2023/09/06 17:03:17;;;;;;;10.07;5.57;;;;;;;;;;6260045;28;20064;-69
2023/09/06 17:06:22;;;;;;;13.43;6.57;;;;;;;;;;6254340;28;20060;-68
2023/09/06 17:09:24;;;;;;;14.15;8.15;;;;;;;;;;6257787;28;20049;-68
2023/09/06 17:12:26;;;;;;;7.75;5.78;;;;;;;;;;6260680;28;20539;-67
2023/09/06 17:15:28;;;;;;;8.18;6.00;;;;;;;;;;6259832;28;20068;-68
2023/09/06 17:18:31;;;;;;;10.20;6.00;;;;;;;;;;6253963;28;20064;-67
2023/09/06 17:21:40;;;;;;;9.90;6.32;;;;;;;;;;6257073;28;20090;-67
2023/09/06 17:24:42;;;;;;;8.48;6.22;;;;;;;;;;6254349;28;20064;-67
2023/09/06 17:27:46;;;;;;;9.65;6.63;;;;;;;;;;6259477;28;20056;-68
2023/09/06 17:30:48;;;;;;;9.88;6.75;;;;;;;;;;6260966;28;20505;-67
2023/09/06 17:33:50;;;;;;;9.32;7.13;;;;;;;;;;6261666;28;20519;-67
2023/09/06 17:36:55;;;;;;;13.52;6.18;;;;;;;;;;6258439;28;20044;-67
2023/09/06 17:39:57;;;;;;;14.88;6.30;;;;;;;;;;6261807;28;20076;-68
2023/09/06 17:42:59;;;;;;;8.43;6.15;;;;;;;;;;6262727;28;20127;-68
2023/09/06 17:46:03;;;;;;;10.95;6.35;;;;;;;;;;6265011;28;20490;-68
2023/09/06 17:49:08;;;;;;;8.27;6.00;;;;;;;;;;6260192;28;20051;-67
2023/09/06 17:52:11;;;;;;;10.52;6.25;;;;;;;;;;6259776;28;20520;-67
2023/09/06 17:55:14;;;;;;;9.27;5.90;;;;;;;;;;6253048;28;20532;-67
2023/09/06 17:58:17;;;;;;;11.10;6.53;;;;;;;;;;6257194;28;20049;-67
2023/09/06 18:01:21;;;;;;;9.18;6.65;;;;;;;;;;6263148;28;20048;-68
2023/09/06 18:04:24;;;;;;;9.20;6.72;;;;;;;;;;6257024;28;20041;-69
2023/09/06 18:07:27;;;;;;;9.73;6.55;;;;;;;;;;6263216;28;20080;-67
2023/09/06 18:10:32;;;;;;;10.68;6.53;;;;;;;;;;6259831;28;20056;-68
2023/09/06 18:13:37;;;;;;;9.23;6.18;;;;;;;;;;6264132;28;20052;-68
2023/09/06 18:16:42;;;;;;;8.15;6.88;;;;;;;;;;6264496;28;20075;-68
2023/09/06 18:19:44;;;;;;;;;;;;;;;;;;6260612;28;20036;-68